createdAt,value
2023-02-09T00:00:12.972Z,13.82
2023-02-09T00:02:44.228Z,13.63
2023-02-09T00:05:11.861Z,13.20
2023-02-09T00:07:38.714Z,12.98
2023-02-09T00:10:05.644Z,14.80
2023-02-09T00:12:51.050Z,12.73
2023-02-09T00:15:17.833Z,12.88
2023-02-09T00:17:44.572Z,12.32
2023-02-09T00:20:11.538Z,11.65
2023-02-09T00:22:38.269Z,12.70
2023-02-09T00:25:05.292Z,13.30
2023-02-09T00:27:35.529Z,12.20
2023-02-09T00:30:04.150Z,14.38
2023-02-09T00:32:32.810Z,12.60
2023-02-09T00:34:59.541Z,12.25
2023-02-09T00:37:28.138Z,14.90
2023-02-09T00:39:54.888Z,13.35
2023-02-09T00:42:21.584Z,12.85
2023-02-09T00:44:48.391Z,11.57
2023-02-09T00:47:15.152Z,11.55
2023-02-09T00:49:41.923Z,12.20
2023-02-09T00:52:10.030Z,12.80
2023-02-09T00:54:37.316Z,11.90
2023-02-09T00:59:35.281Z,11.27
2023-02-09T01:02:03.023Z,13.02
2023-02-09T01:04:29.834Z,12.02
2023-02-09T01:06:56.676Z,11.75
2023-02-09T01:09:23.460Z,13.13
2023-02-09T01:11:50.253Z,13.35
2023-02-09T01:14:17.861Z,13.10
2023-02-09T01:16:44.666Z,11.23
2023-02-09T01:19:13.638Z,11.55
2023-02-09T01:21:40.947Z,12.43
2023-02-09T01:24:11.870Z,13.50
2023-02-09T01:26:38.645Z,13.00
2023-02-09T01:29:05.345Z,12.15
2023-02-09T01:31:34.819Z,12.77
2023-02-09T01:34:03.492Z,14.15
2023-02-09T01:36:32.276Z,15.63
2023-02-09T01:39:01.606Z,15.10
2023-02-09T01:41:28.854Z,13.82
2023-02-09T01:44:14.384Z,14.63
2023-02-09T01:46:41.065Z,13.98
2023-02-09T01:49:41.054Z,14.73
2023-02-09T01:52:13.081Z,16.33
2023-02-09T01:54:51.260Z,17.05
2023-02-09T01:57:27.366Z,15.43
2023-02-09T02:00:00.323Z,16.02
2023-02-09T02:02:29.573Z,16.27
2023-02-09T02:04:56.661Z,17.95
2023-02-09T02:07:52.854Z,15.48
2023-02-09T02:10:19.652Z,16.13
2023-02-09T02:12:46.571Z,17.20
2023-02-09T02:15:13.460Z,14.30
2023-02-09T02:17:48.945Z,16.35
2023-02-09T02:20:52.011Z,16.67
2023-02-09T02:23:30.446Z,16.42
2023-02-09T02:26:18.157Z,15.68
2023-02-09T02:29:11.462Z,15.95
2023-02-09T02:32:06.476Z,14.32
2023-02-09T02:34:46.484Z,15.13
2023-02-09T02:37:51.145Z,18.73
2023-02-09T02:40:17.815Z,17.75
2023-02-09T02:43:02.337Z,15.57
2023-02-09T02:45:58.746Z,16.27
2023-02-09T02:48:53.326Z,18.38
2023-02-09T02:51:35.202Z,16.45
2023-02-09T02:54:08.111Z,16.58
2023-02-09T02:56:40.168Z,17.15
2023-02-09T02:59:14.177Z,16.40
2023-02-09T03:01:55.142Z,16.63
2023-02-09T03:04:23.512Z,17.08
2023-02-09T03:06:50.191Z,16.33
2023-02-09T03:09:17.870Z,17.00
2023-02-09T03:11:51.671Z,15.95
2023-02-09T03:14:41.198Z,16.42
2023-02-09T03:17:29.121Z,16.45
2023-02-09T03:20:08.086Z,19.02
2023-02-09T03:22:42.664Z,14.25
2023-02-09T03:25:22.490Z,16.20
2023-02-09T03:28:09.308Z,17.75
2023-02-09T03:30:42.302Z,14.40
2023-02-09T03:33:26.058Z,17.30
2023-02-09T03:35:55.974Z,14.48
2023-02-09T03:38:23.862Z,17.67
2023-02-09T03:40:50.780Z,15.63
2023-02-09T03:43:17.558Z,16.58
2023-02-09T03:45:44.256Z,17.13
2023-02-09T03:48:11.148Z,16.52
2023-02-09T03:50:38.077Z,18.02
2023-02-09T03:53:06.537Z,16.10
2023-02-09T03:55:33.746Z,17.38
2023-02-09T04:00:27.510Z,18.15
2023-02-09T04:05:22.774Z,16.90
2023-02-09T04:07:49.682Z,17.17
2023-02-09T04:10:16.444Z,18.88
2023-02-09T04:12:43.192Z,18.08
2023-02-09T04:15:10.331Z,16.83
2023-02-09T04:20:04.041Z,17.80
2023-02-09T04:24:57.357Z,18.15
2023-02-09T04:27:24.052Z,13.52
2023-02-09T04:29:50.773Z,16.95
2023-02-09T04:32:17.493Z,17.73
2023-02-09T04:34:44.165Z,18.08
2023-02-09T04:37:10.897Z,17.42
2023-02-09T04:39:37.655Z,18.77
2023-02-09T04:42:04.402Z,16.42
2023-02-09T04:44:31.048Z,19.83
2023-02-09T04:46:57.745Z,14.23
2023-02-09T04:49:24.497Z,18.92
2023-02-09T04:51:51.296Z,16.27
2023-02-09T04:54:18.023Z,18.10
2023-02-09T04:56:44.766Z,18.10
2023-02-09T04:59:30.241Z,21.27
2023-02-09T05:01:56.996Z,18.20
2023-02-09T05:04:23.765Z,17.48
2023-02-09T05:06:50.626Z,18.15
2023-02-09T05:11:44.600Z,16.00
2023-02-09T05:14:11.498Z,19.05
2023-02-09T05:16:39.450Z,19.15
2023-02-09T05:19:06.500Z,16.85
2023-02-09T05:21:33.784Z,18.08
2023-02-09T05:24:01.078Z,16.48
2023-02-09T05:26:28.070Z,17.80
2023-02-09T05:28:54.833Z,19.70
2023-02-09T05:31:21.961Z,20.35
2023-02-09T05:33:51.522Z,18.95
2023-02-09T05:36:18.464Z,18.17
2023-02-09T05:38:45.298Z,19.98
2023-02-09T05:41:36.547Z,17.98
2023-02-09T05:44:04.433Z,20.90
2023-02-09T05:46:31.246Z,19.30
2023-02-09T05:48:58.124Z,17.15
2023-02-09T05:51:25.223Z,16.63
2023-02-09T05:53:56.299Z,16.85
2023-02-09T05:56:23.036Z,16.67
2023-02-09T05:58:49.787Z,18.27
2023-02-09T06:01:16.563Z,17.20
2023-02-09T06:03:43.420Z,17.73
2023-02-09T06:06:10.295Z,16.38
2023-02-09T06:08:37.800Z,17.08
2023-02-09T06:11:06.130Z,18.50
2023-02-09T06:13:33.413Z,18.55
2023-02-09T06:16:00.263Z,18.77
2023-02-09T06:18:27.094Z,19.55
2023-02-09T06:20:54.448Z,18.67
2023-02-09T06:23:21.458Z,20.10
2023-02-09T06:25:48.693Z,20.50
2023-02-09T06:28:15.732Z,19.92
2023-02-09T06:30:42.732Z,18.80
2023-02-09T06:33:09.523Z,18.38
2023-02-09T06:35:36.353Z,19.70
2023-02-09T06:38:03.133Z,20.42
2023-02-09T06:40:30.056Z,21.95
2023-02-09T06:42:57.136Z,20.13
2023-02-09T06:45:23.977Z,19.02
2023-02-09T06:47:50.748Z,17.45
2023-02-09T06:50:17.928Z,18.10
2023-02-09T06:52:45.471Z,18.88
2023-02-09T06:55:12.822Z,18.38
2023-02-09T06:57:39.834Z,19.42
2023-02-09T07:00:08.847Z,19.02
2023-02-09T07:02:35.782Z,19.42
2023-02-09T07:05:02.595Z,19.45
2023-02-09T07:07:29.505Z,20.98
2023-02-09T07:09:56.331Z,20.40
2023-02-09T07:14:51.718Z,19.80
2023-02-09T07:17:18.608Z,21.50
2023-02-09T07:19:46.500Z,19.50
2023-02-09T07:22:13.324Z,20.67
2023-02-09T07:24:40.149Z,19.40
2023-02-09T07:27:07.735Z,18.23
2023-02-09T07:29:34.499Z,19.48
2023-02-09T07:32:01.331Z,18.67
2023-02-09T07:34:28.148Z,21.05
2023-02-09T07:36:55.034Z,20.00
2023-02-09T07:39:21.869Z,18.10
2023-02-09T07:41:48.659Z,19.40
2023-02-09T07:44:15.547Z,17.92
2023-02-09T07:46:42.659Z,17.25
2023-02-09T07:51:36.903Z,19.98
2023-02-09T07:54:05.960Z,19.13
2023-02-09T07:56:37.284Z,17.67
2023-02-09T07:59:04.160Z,20.40
2023-02-09T08:01:31.159Z,19.30
2023-02-09T08:03:58.285Z,23.83
2023-02-09T08:09:11.411Z,21.63
2023-02-09T08:11:46.133Z,18.60
2023-02-09T08:14:19.131Z,22.10
2023-02-09T08:16:47.651Z,19.52
2023-02-09T08:19:22.701Z,21.33
2023-02-09T08:21:50.586Z,18.52
2023-02-09T08:24:20.497Z,17.83
2023-02-09T08:26:47.444Z,19.40
2023-02-09T08:29:14.321Z,17.90
2023-02-09T08:31:41.217Z,16.45
2023-02-09T08:34:08.093Z,17.73
2023-02-09T08:36:37.523Z,17.48
2023-02-09T08:39:05.302Z,28.73
2023-02-09T08:41:32.140Z,36.90
2023-02-09T08:43:58.871Z,16.88
2023-02-09T08:46:25.854Z,19.52
2023-02-09T08:48:53.240Z,16.80
2023-02-09T08:51:20.287Z,16.08
2023-02-09T08:56:20.889Z,16.60
2023-02-09T08:58:48.129Z,15.23
2023-02-09T09:01:15.129Z,16.40
2023-02-09T09:03:42.388Z,16.48
2023-02-09T09:06:11.553Z,16.65
2023-02-09T09:08:39.934Z,17.60
2023-02-09T09:11:12.803Z,18.48
2023-02-09T09:13:40.933Z,16.17
2023-02-09T09:16:13.167Z,14.38
2023-02-09T09:18:40.161Z,18.85
2023-02-09T09:21:06.992Z,14.85
2023-02-09T09:26:02.253Z,16.43
2023-02-09T09:28:29.701Z,15.02
2023-02-09T09:30:59.370Z,14.52
2023-02-09T09:33:26.215Z,15.18
2023-02-09T09:38:19.614Z,15.82
2023-02-09T09:40:46.592Z,15.15
2023-02-09T09:43:33.473Z,12.98
2023-02-09T09:46:01.638Z,14.50
2023-02-09T09:48:52.702Z,13.98
2023-02-09T09:51:33.571Z,13.80
2023-02-09T09:54:02.705Z,14.38
2023-02-09T09:56:31.086Z,15.90
2023-02-09T09:58:59.004Z,15.63
2023-02-09T10:01:28.523Z,13.38
2023-02-09T10:04:01.207Z,14.93
2023-02-09T10:06:33.719Z,14.35
2023-02-09T10:09:07.901Z,13.73
2023-02-09T10:11:34.772Z,14.73
2023-02-09T10:16:34.298Z,13.77
2023-02-09T10:19:06.533Z,14.35
2023-02-09T10:21:36.297Z,14.25
2023-02-09T10:24:11.719Z,15.45
2023-02-09T10:26:40.748Z,15.50
2023-02-09T10:29:25.445Z,14.82
2023-02-09T10:32:11.254Z,14.02
2023-02-09T10:34:37.917Z,14.68
2023-02-09T10:37:32.238Z,14.80
2023-02-09T10:40:14.024Z,14.38
2023-02-09T10:42:59.590Z,13.18
2023-02-09T10:45:42.346Z,13.98
2023-02-09T10:48:11.824Z,14.77
2023-02-09T10:50:57.540Z,15.27
2023-02-09T10:53:33.325Z,16.13
2023-02-09T10:56:22.913Z,16.20
2023-02-09T10:58:52.163Z,16.42
2023-02-09T11:01:28.639Z,16.70
2023-02-09T11:04:02.546Z,14.73
2023-02-09T11:06:36.082Z,16.10
2023-02-09T11:09:34.722Z,14.85
2023-02-09T11:12:02.159Z,15.43
2023-02-09T11:14:29.064Z,14.35
2023-02-09T11:17:16.368Z,15.50
2023-02-09T11:22:28.896Z,15.50
2023-02-09T11:25:02.154Z,16.30
2023-02-09T11:27:46.751Z,15.43
2023-02-09T11:31:02.046Z,14.40
2023-02-09T11:33:59.760Z,14.88
2023-02-09T11:36:52.241Z,14.88
2023-02-09T11:39:58.078Z,15.63
2023-02-09T11:42:43.978Z,17.08
2023-02-09T11:45:22.240Z,16.67
2023-02-09T11:48:23.433Z,14.75
2023-02-09T11:50:55.921Z,17.17
2023-02-09T11:53:25.393Z,15.60
2023-02-09T11:56:01.854Z,16.38
2023-02-09T11:58:50.810Z,15.77
2023-02-09T12:01:29.764Z,15.98
2023-02-09T12:04:16.888Z,16.80
2023-02-09T12:06:48.947Z,17.27
2023-02-09T12:09:40.544Z,15.90
2023-02-09T12:12:27.565Z,16.45
2023-02-09T12:15:10.306Z,17.17
2023-02-09T12:17:43.032Z,15.85
2023-02-09T12:20:30.566Z,16.33
2023-02-09T12:23:07.901Z,17.13
2023-02-09T12:26:02.023Z,18.27
2023-02-09T12:28:32.198Z,17.85
2023-02-09T12:31:03.461Z,17.58
2023-02-09T12:33:34.397Z,17.90
2023-02-09T12:36:10.344Z,15.45
2023-02-09T12:38:56.836Z,16.15
2023-02-09T12:41:29.085Z,15.43
2023-02-09T12:44:24.865Z,17.50
2023-02-09T12:46:55.685Z,17.52
2023-02-09T12:49:28.666Z,18.25
2023-02-09T12:52:01.775Z,18.52
2023-02-09T12:54:54.691Z,18.13
2023-02-09T12:57:22.168Z,14.98
2023-02-09T13:00:00.713Z,16.60
2023-02-09T13:02:49.754Z,18.23
2023-02-09T13:05:24.754Z,18.15
2023-02-09T13:08:10.397Z,16.65
2023-02-09T13:10:57.710Z,17.98
2023-02-09T13:16:24.949Z,17.70
2023-02-09T13:19:24.310Z,17.17
2023-02-09T13:22:25.211Z,16.98
2023-02-09T13:25:27.690Z,18.35
2023-02-09T13:27:54.492Z,17.33
2023-02-09T13:30:32.421Z,18.13
2023-02-09T13:33:11.186Z,17.10
2023-02-09T13:36:11.155Z,16.42
2023-02-09T13:38:43.245Z,18.38
2023-02-09T13:41:38.183Z,15.60
2023-02-09T13:44:20.223Z,19.65
2023-02-09T13:46:52.830Z,17.58
2023-02-09T13:49:21.882Z,18.52
2023-02-09T13:52:09.180Z,17.23
2023-02-09T13:54:36.291Z,16.58
2023-02-09T13:57:03.788Z,17.83
2023-02-09T13:59:30.543Z,15.93
2023-02-09T14:01:58.142Z,19.17
2023-02-09T14:04:34.475Z,17.75
2023-02-09T14:07:08.904Z,18.05
2023-02-09T14:09:57.756Z,18.08
2023-02-09T14:12:51.816Z,18.15
2023-02-09T14:16:07.786Z,18.30
2023-02-09T14:18:51.443Z,18.30
2023-02-09T14:21:32.558Z,17.67
2023-02-09T14:23:59.301Z,18.60
2023-02-09T14:26:51.844Z,18.13
2023-02-09T14:29:18.548Z,19.80
2023-02-09T14:34:30.120Z,18.67
2023-02-09T14:37:00.317Z,18.48
2023-02-09T14:39:31.133Z,21.98
2023-02-09T14:42:24.356Z,18.77
2023-02-09T14:44:55.209Z,19.30
2023-02-09T14:47:39.493Z,19.50
2023-02-09T14:50:19.238Z,17.80
2023-02-09T14:52:47.604Z,17.23
2023-02-09T14:55:20.871Z,17.33
2023-02-09T14:57:47.996Z,17.45
2023-02-09T15:00:25.385Z,16.55
2023-02-09T15:05:20.902Z,17.05
2023-02-09T15:07:55.747Z,19.58
2023-02-09T15:10:24.900Z,17.42
2023-02-09T15:12:51.956Z,20.38
2023-02-09T15:15:20.210Z,18.65
2023-02-09T15:17:47.507Z,19.58
2023-02-09T15:20:21.364Z,18.33
2023-02-09T15:22:48.160Z,18.52
2023-02-09T15:25:15.727Z,17.67
2023-02-09T15:27:51.423Z,18.25
2023-02-09T15:30:26.795Z,20.17
2023-02-09T15:32:54.215Z,18.67
2023-02-09T15:35:24.156Z,18.08
2023-02-09T15:38:01.477Z,18.95
2023-02-09T15:41:01.179Z,21.40
2023-02-09T15:43:46.786Z,18.30
2023-02-09T15:46:35.948Z,18.48
2023-02-09T15:49:02.815Z,19.05
2023-02-09T15:51:34.118Z,19.27
2023-02-09T15:54:03.533Z,17.38
2023-02-09T15:56:30.492Z,18.83
2023-02-09T15:59:03.386Z,22.35
2023-02-09T16:01:34.442Z,20.40
2023-02-09T16:04:14.636Z,20.13
2023-02-09T16:06:49.524Z,20.20
2023-02-09T16:09:23.606Z,20.02
2023-02-09T16:11:50.384Z,20.95
2023-02-09T16:14:20.556Z,20.85
2023-02-09T16:16:48.295Z,21.75
2023-02-09T16:19:15.498Z,20.83
2023-02-09T16:24:26.299Z,22.38
2023-02-09T16:26:53.263Z,22.80
2023-02-09T16:29:20.167Z,26.23
2023-02-09T16:31:47.552Z,23.27
2023-02-09T16:34:15.532Z,22.45
2023-02-09T16:36:42.994Z,20.73
2023-02-09T16:39:17.272Z,21.20
2023-02-09T16:41:47.281Z,19.75
2023-02-09T16:44:22.874Z,25.80
2023-02-09T16:46:53.041Z,22.15
2023-02-09T16:49:40.246Z,21.75
2023-02-09T16:52:21.941Z,21.05
2023-02-09T16:54:51.879Z,22.42
2023-02-09T16:57:20.407Z,24.00
2023-02-09T16:59:47.368Z,25.27
2023-02-09T17:02:32.280Z,24.10
2023-02-09T17:05:00.583Z,25.65
2023-02-09T17:07:45.477Z,26.30
2023-02-09T17:10:23.010Z,26.77
2023-02-09T17:12:52.002Z,26.38
2023-02-09T17:15:30.214Z,25.75
2023-02-09T17:18:02.921Z,25.80
2023-02-09T17:20:42.157Z,23.08
2023-02-09T17:23:31.629Z,21.58
2023-02-09T17:25:59.076Z,22.10
2023-02-09T17:28:27.360Z,21.38
2023-02-09T17:31:00.212Z,21.70
2023-02-09T17:33:34.139Z,21.98
2023-02-09T17:38:49.314Z,23.08
2023-02-09T17:43:51.807Z,31.15
2023-02-09T17:46:19.868Z,30.70
2023-02-09T17:48:49.680Z,25.23
2023-02-09T17:51:23.442Z,31.02
2023-02-09T17:53:50.541Z,27.02
2023-02-09T17:56:18.700Z,25.30
2023-02-09T17:58:45.792Z,28.13
2023-02-09T18:04:00.121Z,26.92
2023-02-09T18:06:35.577Z,28.75
2023-02-09T18:09:05.490Z,27.63
2023-02-09T18:11:56.870Z,35.45
2023-02-09T18:14:25.798Z,35.75
2023-02-09T18:16:54.136Z,27.35
2023-02-09T18:19:22.910Z,27.83
2023-02-09T18:21:52.842Z,25.63
2023-02-09T18:24:21.517Z,24.05
2023-02-09T18:26:51.334Z,23.33
2023-02-09T18:29:20.596Z,24.70
2023-02-09T18:31:48.091Z,26.05
2023-02-09T18:34:16.154Z,25.67
2023-02-09T18:36:44.152Z,28.00
2023-02-09T18:39:14.642Z,28.67
2023-02-09T18:41:42.387Z,24.58
2023-02-09T18:44:10.653Z,24.15
2023-02-09T18:46:37.709Z,22.10
2023-02-09T18:51:32.455Z,22.48
2023-02-09T18:54:00.159Z,23.95
2023-02-09T18:56:28.170Z,28.73
2023-02-09T18:58:55.073Z,31.70
2023-02-09T19:01:23.028Z,28.00
2023-02-09T19:03:53.817Z,24.38
2023-02-09T19:06:22.072Z,26.17
2023-02-09T19:08:51.142Z,31.15
2023-02-09T19:11:22.325Z,33.42
2023-02-09T19:14:08.225Z,30.27
2023-02-09T19:16:36.975Z,33.03
2023-02-09T19:19:06.357Z,29.15
2023-02-09T19:21:35.836Z,29.63
2023-02-09T19:24:03.563Z,25.25
2023-02-09T19:26:32.908Z,26.38
2023-02-09T19:29:00.479Z,26.35
2023-02-09T19:31:27.579Z,32.03
2023-02-09T19:33:56.612Z,33.08
2023-02-09T19:36:24.432Z,26.65
2023-02-09T19:38:51.527Z,28.80
2023-02-09T19:41:23.316Z,26.38
2023-02-09T19:43:57.532Z,30.33
2023-02-09T19:46:25.129Z,29.08
2023-02-09T19:48:54.004Z,30.13
2023-02-09T19:51:21.573Z,30.00
2023-02-09T19:53:48.842Z,25.95
2023-02-09T19:58:44.878Z,26.98
2023-02-09T20:01:12.769Z,26.20
2023-02-09T20:03:40.106Z,24.23
2023-02-09T20:08:37.533Z,24.75
2023-02-09T20:11:10.007Z,24.98
2023-02-09T20:13:37.659Z,28.60
2023-02-09T20:16:13.749Z,24.23
2023-02-09T20:18:41.092Z,28.23
2023-02-09T20:21:09.071Z,28.83
2023-02-09T20:23:38.476Z,26.27
2023-02-09T20:26:17.812Z,24.48
2023-02-09T20:28:46.622Z,30.38
2023-02-09T20:31:22.343Z,26.52
2023-02-09T20:33:49.561Z,26.63
2023-02-09T20:36:18.799Z,26.20
2023-02-09T20:38:47.602Z,27.92
2023-02-09T20:41:17.595Z,26.95
2023-02-09T20:44:03.595Z,26.23
2023-02-09T20:46:44.781Z,25.20
2023-02-09T20:49:16.531Z,32.97
2023-02-09T20:51:46.143Z,29.55
2023-02-09T20:54:14.577Z,28.83
2023-02-09T20:56:44.566Z,25.25
2023-02-09T20:59:13.830Z,28.15
2023-02-09T21:01:42.189Z,26.63
2023-02-09T21:04:12.470Z,25.25
2023-02-09T21:06:40.214Z,25.08
2023-02-09T21:09:12.314Z,24.30
2023-02-09T21:11:40.640Z,25.23
2023-02-09T21:14:21.560Z,25.50
2023-02-09T21:17:00.919Z,26.00
2023-02-09T21:19:30.273Z,28.98
2023-02-09T21:22:07.020Z,28.50
2023-02-09T21:24:52.449Z,30.55
2023-02-09T21:28:04.422Z,34.28
2023-02-09T21:31:01.565Z,36.80
2023-02-09T21:33:39.055Z,34.20
2023-02-09T21:36:29.618Z,36.03
2023-02-09T21:39:08.854Z,30.45
2023-02-09T21:48:26.025Z,31.67
2023-02-09T21:50:56.352Z,31.40
2023-02-09T21:53:31.048Z,31.35
2023-02-09T21:56:16.972Z,29.73
2023-02-09T21:59:02.451Z,28.73
2023-02-09T22:01:31.122Z,29.55
2023-02-09T22:03:58.439Z,28.30
2023-02-09T22:06:27.096Z,28.13
2023-02-09T22:08:53.903Z,26.48
2023-02-09T22:11:20.643Z,28.80
2023-02-09T22:13:47.562Z,30.98
2023-02-09T22:16:19.373Z,31.42
2023-02-09T22:18:46.153Z,31.73
2023-02-09T22:21:13.302Z,27.88
2023-02-09T22:23:40.118Z,28.20
2023-02-09T22:26:07.092Z,26.58
2023-02-09T22:28:36.520Z,28.35
2023-02-09T22:31:08.914Z,27.60
2023-02-09T22:33:36.095Z,28.38
2023-02-09T22:38:34.074Z,27.95
2023-02-09T22:41:21.154Z,28.55
2023-02-09T22:43:55.402Z,29.17
2023-02-09T22:46:25.289Z,29.52
2023-02-09T22:48:56.873Z,27.98
2023-02-09T22:51:26.890Z,27.35
2023-02-09T22:53:53.862Z,29.10
2023-02-09T22:56:21.143Z,27.58
2023-02-09T22:58:47.946Z,28.50
2023-02-09T23:01:16.385Z,26.40
2023-02-09T23:03:43.255Z,31.00
2023-02-09T23:06:14.207Z,28.30
2023-02-09T23:08:41.148Z,26.75
2023-02-09T23:11:10.766Z,25.35
2023-02-09T23:13:38.277Z,29.80
2023-02-09T23:16:14.680Z,26.08
2023-02-09T23:18:47.099Z,28.52
2023-02-09T23:21:14.691Z,28.90
2023-02-09T23:23:41.445Z,27.52
2023-02-09T23:26:08.244Z,28.05
2023-02-09T23:28:35.386Z,31.33
2023-02-09T23:33:37.991Z,32.25
2023-02-09T23:36:10.601Z,30.65
2023-02-09T23:38:37.705Z,29.83
2023-02-09T23:43:38.989Z,30.38
2023-02-09T23:48:34.141Z,26.60
2023-02-09T23:51:15.979Z,30.13
2023-02-09T23:53:42.844Z,27.70
2023-02-09T23:56:09.996Z,27.63
